createdAt,value
2019-04-30T00:00:56.853Z,67.47
2019-04-30T00:04:37.537Z,67.38
2019-04-30T00:07:58.737Z,67.44
2019-04-30T00:11:21.947Z,66.91
2019-04-30T00:14:45.186Z,67.05
2019-04-30T00:18:08.404Z,67.21
2019-04-30T00:21:32.494Z,67.21
2019-04-30T00:24:55.758Z,67.41
2019-04-30T00:28:18.830Z,67.30
2019-04-30T00:31:41.883Z,66.93
2019-04-30T00:35:07.358Z,67.28
2019-04-30T00:38:34.270Z,67.94
2019-04-30T00:41:56.812Z,68.06
2019-04-30T00:45:20.037Z,67.79
2019-04-30T00:48:43.203Z,67.99
2019-04-30T00:52:06.307Z,68.34
2019-04-30T00:55:29.696Z,67.58
2019-04-30T00:58:57.475Z,68.35
2019-04-30T01:02:41.870Z,69.31
2019-04-30T01:06:07.238Z,69.49
2019-04-30T01:09:30.542Z,69.10
2019-04-30T01:12:53.894Z,68.75
2019-04-30T01:16:17.152Z,68.74
2019-04-30T01:19:40.519Z,68.88
2019-04-30T01:23:09.888Z,69.23
2019-04-30T01:26:31.068Z,69.64
2019-04-30T01:29:58.507Z,69.58
2019-04-30T01:33:21.674Z,69.46
2019-04-30T01:36:50.740Z,70.31
2019-04-30T01:40:13.560Z,69.82
2019-04-30T01:43:35.500Z,69.90
2019-04-30T01:46:58.912Z,70.69
2019-04-30T01:50:24.705Z,68.88
2019-04-30T01:53:48.488Z,69.94
2019-04-30T01:57:30.417Z,69.85
2019-04-30T02:00:59.503Z,69.62
2019-04-30T02:04:26.301Z,69.99
2019-04-30T02:07:49.371Z,70.71
2019-04-30T02:11:12.688Z,70.91
2019-04-30T02:14:35.781Z,70.65
2019-04-30T02:17:59.223Z,71.40
2019-04-30T02:21:22.903Z,70.54
2019-04-30T02:24:48.649Z,70.86
2019-04-30T02:28:11.895Z,70.84
2019-04-30T02:31:35.147Z,71.37
2019-04-30T02:35:20.811Z,70.89
2019-04-30T02:38:49.240Z,71.28
2019-04-30T02:42:13.236Z,72.06
2019-04-30T02:45:40.106Z,71.52
2019-04-30T02:49:05.572Z,71.44
2019-04-30T02:52:31.490Z,71.17
2019-04-30T02:55:56.822Z,70.17
2019-04-30T02:59:20.353Z,70.29
2019-04-30T03:02:43.614Z,70.19
2019-04-30T03:06:06.736Z,70.13
2019-04-30T03:09:30.405Z,70.47
2019-04-30T03:12:55.671Z,69.81
2019-04-30T03:16:23.035Z,70.32
2019-04-30T03:20:20.250Z,70.04
2019-04-30T03:23:38.988Z,70.58
2019-04-30T03:27:02.193Z,69.94
2019-04-30T03:30:25.286Z,70.44
2019-04-30T03:33:52.238Z,71.57
2019-04-30T03:37:13.410Z,71.99
2019-04-30T03:40:36.496Z,72.63
2019-04-30T03:44:16.753Z,72.78
2019-04-30T03:47:25.763Z,72.57
2019-04-30T03:50:55.812Z,73.30
2019-04-30T03:54:13.742Z,74.24
2019-04-30T03:57:39.697Z,74.40
2019-04-30T04:01:19.592Z,73.62
2019-04-30T04:04:52.946Z,73.71
2019-04-30T04:08:36.277Z,74.10
2019-04-30T04:12:20.368Z,73.35
2019-04-30T04:15:43.972Z,74.80
2019-04-30T04:19:09.527Z,73.98
2019-04-30T04:22:31.969Z,74.09
2019-04-30T04:25:55.174Z,74.35
2019-04-30T04:29:19.655Z,73.99
2019-04-30T04:32:43.193Z,74.10
2019-04-30T04:36:06.199Z,73.45
2019-04-30T04:39:29.799Z,73.72
2019-04-30T04:42:56.113Z,74.40
2019-04-30T04:46:20.592Z,73.52
2019-04-30T04:49:43.759Z,73.59
2019-04-30T04:53:08.880Z,73.42
2019-04-30T04:56:32.177Z,72.11
2019-04-30T04:59:55.346Z,72.29
2019-04-30T05:03:26.206Z,72.59
2019-04-30T05:06:49.960Z,71.81
2019-04-30T05:10:13.595Z,72.24
2019-04-30T05:13:36.637Z,72.57
2019-04-30T05:17:00.953Z,73.34
2019-04-30T05:20:26.506Z,73.30
2019-04-30T05:23:49.712Z,73.98
2019-04-30T05:27:12.814Z,73.67
2019-04-30T05:30:35.978Z,72.99
2019-04-30T05:33:59.068Z,71.86
2019-04-30T05:37:22.499Z,71.39
2019-04-30T05:40:45.750Z,72.03
2019-04-30T05:44:09.151Z,72.28
2019-04-30T05:47:32.262Z,71.21
2019-04-30T05:50:56.246Z,70.41
2019-04-30T05:54:19.967Z,70.79
2019-04-30T05:57:53.024Z,71.55
2019-04-30T06:01:09.659Z,71.19
2019-04-30T06:04:33.031Z,70.57
2019-04-30T06:07:56.131Z,69.75
2019-04-30T06:11:39.323Z,70.15
2019-04-30T06:15:25.925Z,70.73
2019-04-30T06:18:49.056Z,69.62
2019-04-30T06:22:12.151Z,70.09
2019-04-30T06:25:52.871Z,70.48
2019-04-30T06:29:00.743Z,69.74
2019-04-30T06:32:29.424Z,68.90
2019-04-30T06:35:54.706Z,68.49
2019-04-30T06:39:18.763Z,68.58
2019-04-30T06:42:42.279Z,67.88
2019-04-30T06:46:05.295Z,67.78
2019-04-30T06:49:29.508Z,67.50
2019-04-30T06:52:56.843Z,67.22
2019-04-30T06:56:18.993Z,66.20
2019-04-30T06:59:42.139Z,66.09
2019-04-30T07:03:06.508Z,64.77
2019-04-30T07:06:32.547Z,62.43
2019-04-30T07:10:02.410Z,60.93
2019-04-30T07:13:29.727Z,59.47
2019-04-30T07:16:55.224Z,58.06
2019-04-30T07:20:19.150Z,56.61
2019-04-30T07:23:42.475Z,57.33
2019-04-30T07:27:05.552Z,57.09
2019-04-30T07:30:30.840Z,55.93
2019-04-30T07:33:56.069Z,56.33
2019-04-30T07:37:24.100Z,54.37
2019-04-30T07:40:44.424Z,54.85
2019-04-30T07:44:10.833Z,54.12
2019-04-30T07:47:32.610Z,52.55
2019-04-30T07:50:55.977Z,52.06
2019-04-30T07:54:19.115Z,51.92
2019-04-30T07:57:42.206Z,51.47
2019-04-30T08:01:05.287Z,50.94
2019-04-30T08:04:50.931Z,51.27
2019-04-30T08:08:20.924Z,52.83
2019-04-30T08:11:41.857Z,51.85
2019-04-30T08:15:04.069Z,52.92
2019-04-30T08:18:27.214Z,51.35
2019-04-30T08:21:50.368Z,49.19
2019-04-30T08:25:13.512Z,50.14
2019-04-30T08:28:38.480Z,49.62
2019-04-30T08:32:01.980Z,51.26
2019-04-30T08:35:25.054Z,51.42
2019-04-30T08:38:49.564Z,50.69
2019-04-30T08:42:12.969Z,51.01
2019-04-30T08:45:36.014Z,52.24
2019-04-30T08:48:59.759Z,51.56
2019-04-30T08:52:25.990Z,52.83
2019-04-30T08:55:49.244Z,53.58
2019-04-30T08:59:12.402Z,54.02
2019-04-30T09:02:35.638Z,51.76
2019-04-30T09:06:21.672Z,51.86
2019-04-30T09:09:45.081Z,52.22
2019-04-30T09:13:10.018Z,51.46
2019-04-30T09:16:33.266Z,49.78
2019-04-30T09:19:58.917Z,48.59
2019-04-30T09:23:22.077Z,50.11
2019-04-30T09:26:45.470Z,47.85
2019-04-30T09:30:10.364Z,50.56
2019-04-30T09:33:33.620Z,48.33
2019-04-30T09:36:58.700Z,47.03
2019-04-30T09:40:22.083Z,49.69
2019-04-30T09:43:45.414Z,47.65
2019-04-30T09:47:09.004Z,46.35
2019-04-30T09:50:32.307Z,45.73
2019-04-30T09:53:59.503Z,46.84
2019-04-30T09:57:20.382Z,47.66
2019-04-30T10:00:43.477Z,46.87
2019-04-30T10:04:09.873Z,43.96
2019-04-30T10:07:32.958Z,46.41
2019-04-30T10:11:10.697Z,44.82
2019-04-30T10:14:33.905Z,40.38
2019-04-30T10:17:57.159Z,39.20
2019-04-30T10:21:20.401Z,38.90
2019-04-30T10:24:43.509Z,38.48
2019-04-30T10:28:06.914Z,40.63
2019-04-30T10:31:30.418Z,37.93
2019-04-30T10:34:53.911Z,36.98
2019-04-30T10:38:17.065Z,34.16
2019-04-30T10:41:40.399Z,34.42
2019-04-30T10:45:14.645Z,36.11
2019-04-30T10:48:37.683Z,34.93
2019-04-30T10:52:01.231Z,33.03
2019-04-30T10:55:25.673Z,35.94
2019-04-30T10:58:48.757Z,33.58
2019-04-30T11:02:11.775Z,32.27
2019-04-30T11:05:34.841Z,30.47
2019-04-30T11:08:58.191Z,33.78
2019-04-30T11:12:21.200Z,33.83
2019-04-30T11:15:44.607Z,34.07
2019-04-30T11:19:09.408Z,30.31
2019-04-30T11:22:33.240Z,28.37
2019-04-30T11:25:57.003Z,29.17
2019-04-30T11:29:23.021Z,29.42
2019-04-30T11:32:45.894Z,30.78
2019-04-30T11:36:09.670Z,30.25
2019-04-30T11:39:32.834Z,29.76
2019-04-30T11:42:56.327Z,32.67
2019-04-30T11:47:28.826Z,30.18
2019-04-30T11:50:51.975Z,31.35
2019-04-30T11:54:15.037Z,33.09
2019-04-30T11:57:39.722Z,28.61
2019-04-30T12:01:04.082Z,30.12
2019-04-30T12:04:27.172Z,32.78
2019-04-30T12:08:03.451Z,30.18
2019-04-30T12:11:31.941Z,27.36
2019-04-30T12:14:55.126Z,26.83
2019-04-30T12:18:18.180Z,27.86
2019-04-30T12:21:41.447Z,27.75
2019-04-30T12:25:05.497Z,24.66
2019-04-30T12:28:29.896Z,28.56
2019-04-30T12:31:55.244Z,28.30
2019-04-30T12:35:18.402Z,26.13
2019-04-30T12:38:41.396Z,23.71
2019-04-30T12:42:04.730Z,25.42
2019-04-30T12:45:29.432Z,25.61
2019-04-30T12:49:00.862Z,25.45
2019-04-30T12:52:39.635Z,31.61
2019-04-30T12:56:13.650Z,26.23
2019-04-30T12:59:36.686Z,24.94
2019-04-30T13:02:59.901Z,27.32
2019-04-30T13:06:25.713Z,26.81
2019-04-30T13:09:50.042Z,25.53
2019-04-30T13:13:14.465Z,24.97
2019-04-30T13:16:39.274Z,25.27
2019-04-30T13:20:02.489Z,26.29
2019-04-30T13:23:25.814Z,24.78
2019-04-30T13:26:49.477Z,21.51
2019-04-30T13:30:26.820Z,26.27
2019-04-30T13:33:54.376Z,26.03
2019-04-30T13:37:19.215Z,24.69
2019-04-30T13:41:08.890Z,26.78
2019-04-30T13:44:35.812Z,24.52
2019-04-30T13:47:58.944Z,21.07
2019-04-30T13:51:22.174Z,27.50
2019-04-30T13:54:47.149Z,26.07
2019-04-30T13:58:10.451Z,24.32
2019-04-30T14:01:33.593Z,25.38
2019-04-30T14:05:13.151Z,24.60
2019-04-30T14:08:41.194Z,26.68
2019-04-30T14:12:04.351Z,25.04
2019-04-30T14:15:29.154Z,24.76
2019-04-30T14:18:58.508Z,25.78
2019-04-30T14:22:21.850Z,26.44
2019-04-30T14:25:55.888Z,27.05
2019-04-30T14:29:10.458Z,25.14
2019-04-30T14:32:33.683Z,24.69
2019-04-30T14:35:56.815Z,26.92
2019-04-30T14:39:20.512Z,25.41
2019-04-30T14:42:50.795Z,25.99
2019-04-30T14:46:40.128Z,25.47
2019-04-30T14:50:10.006Z,24.35
2019-04-30T14:54:05.349Z,23.79
2019-04-30T14:57:46.505Z,25.24
2019-04-30T15:01:39.312Z,25.06
2019-04-30T15:05:09.315Z,25.12
2019-04-30T15:08:32.899Z,24.75
2019-04-30T15:11:56.139Z,26.23
2019-04-30T15:15:19.467Z,26.11
2019-04-30T15:18:43.213Z,26.22
2019-04-30T15:22:08.686Z,26.04
2019-04-30T15:25:34.070Z,25.00
2019-04-30T15:28:59.890Z,25.81
2019-04-30T15:32:23.128Z,25.16
2019-04-30T15:35:48.207Z,25.00
2019-04-30T15:39:39.110Z,23.76
2019-04-30T15:43:04.271Z,23.37
2019-04-30T15:46:27.642Z,25.06
2019-04-30T15:49:50.678Z,26.53
2019-04-30T15:53:16.029Z,25.36
2019-04-30T15:56:40.848Z,25.44
2019-04-30T16:00:05.652Z,24.87
2019-04-30T16:03:31.595Z,24.08
2019-04-30T16:06:58.527Z,24.78
2019-04-30T16:10:36.187Z,25.42
2019-04-30T16:14:19.176Z,27.43
2019-04-30T16:17:44.599Z,27.51
2019-04-30T16:21:09.296Z,26.89
2019-04-30T16:24:33.797Z,29.40
2019-04-30T16:27:57.005Z,32.75
2019-04-30T16:31:20.543Z,33.82
2019-04-30T16:34:44.027Z,34.96
2019-04-30T16:38:09.229Z,36.23
2019-04-30T16:41:32.616Z,37.21
2019-04-30T16:44:56.441Z,37.96
2019-04-30T16:48:19.648Z,35.98
2019-04-30T16:51:44.522Z,38.71
2019-04-30T16:55:08.256Z,38.62
2019-04-30T16:58:51.266Z,38.89
2019-04-30T17:02:14.504Z,39.37
2019-04-30T17:05:55.025Z,40.55
2019-04-30T17:09:28.151Z,40.44
2019-04-30T17:13:01.413Z,42.57
2019-04-30T17:16:26.966Z,44.65
2019-04-30T17:19:50.037Z,45.42
2019-04-30T17:23:13.284Z,44.33
2019-04-30T17:26:36.471Z,44.66
2019-04-30T17:29:59.518Z,44.99
2019-04-30T17:33:25.844Z,44.94
2019-04-30T17:36:49.572Z,46.77
2019-04-30T17:40:13.808Z,46.25
2019-04-30T17:43:36.972Z,46.62
2019-04-30T17:47:00.225Z,46.42
2019-04-30T17:50:25.713Z,46.48
2019-04-30T17:54:09.755Z,46.45
2019-04-30T17:57:34.661Z,47.39
2019-04-30T18:01:00.413Z,46.73
2019-04-30T18:04:26.772Z,49.67
2019-04-30T18:07:49.978Z,49.16
2019-04-30T18:11:19.942Z,49.86
2019-04-30T18:14:45.058Z,49.68
2019-04-30T18:18:21.460Z,49.30
2019-04-30T18:21:50.474Z,50.04
2019-04-30T18:25:33.503Z,51.04
2019-04-30T18:29:02.083Z,51.05
2019-04-30T18:32:32.117Z,52.14
2019-04-30T18:35:55.845Z,52.81
2019-04-30T18:39:20.248Z,52.52
2019-04-30T18:42:45.537Z,53.28
2019-04-30T18:46:13.069Z,54.38
2019-04-30T18:49:36.731Z,54.23
2019-04-30T18:53:05.563Z,54.69
2019-04-30T18:57:02.949Z,55.12
2019-04-30T19:00:40.879Z,55.98
2019-04-30T19:04:15.900Z,55.50
2019-04-30T19:07:50.961Z,56.33
2019-04-30T19:11:29.389Z,56.94
2019-04-30T19:15:13.984Z,56.62
2019-04-30T19:18:50.465Z,57.28
2019-04-30T19:22:13.986Z,57.60
2019-04-30T19:25:38.635Z,57.42
2019-04-30T19:29:02.256Z,58.20
2019-04-30T19:32:25.872Z,58.64
2019-04-30T19:35:50.601Z,59.29
2019-04-30T19:39:16.266Z,59.87
2019-04-30T19:42:40.014Z,59.55
2019-04-30T19:46:03.536Z,60.14
2019-04-30T19:49:30.483Z,60.10
2019-04-30T19:52:55.847Z,60.46
2019-04-30T19:56:20.724Z,60.90
2019-04-30T19:59:45.220Z,61.11
2019-04-30T20:03:08.861Z,61.37
2019-04-30T20:06:32.725Z,61.01
2019-04-30T20:10:01.107Z,61.37
2019-04-30T20:13:31.366Z,62.36
2019-04-30T20:16:49.126Z,62.59
2019-04-30T20:20:14.159Z,62.23
2019-04-30T20:23:38.908Z,62.86
2019-04-30T20:27:09.549Z,62.78
2019-04-30T20:30:30.783Z,62.51
2019-04-30T20:33:55.608Z,62.89
2019-04-30T20:37:19.621Z,63.29
2019-04-30T20:40:57.739Z,62.73
2019-04-30T20:44:10.777Z,63.12
2019-04-30T20:47:35.917Z,63.18
2019-04-30T20:51:01.078Z,63.70
2019-04-30T20:54:26.188Z,64.16
2019-04-30T20:57:49.795Z,63.70
2019-04-30T21:01:13.392Z,64.46
2019-04-30T21:04:36.501Z,64.65
2019-04-30T21:08:03.469Z,64.06
2019-04-30T21:11:28.598Z,64.35
2019-04-30T21:14:51.589Z,65.63
2019-04-30T21:18:14.953Z,64.87
2019-04-30T21:21:38.710Z,65.94
2019-04-30T21:25:03.521Z,65.25
2019-04-30T21:28:29.740Z,65.45
2019-04-30T21:32:12.691Z,65.36
2019-04-30T21:35:44.800Z,65.04
2019-04-30T21:39:12.378Z,64.85
2019-04-30T21:42:35.436Z,66.35
2019-04-30T21:45:59.788Z,66.50
2019-04-30T21:49:24.551Z,65.82
2019-04-30T21:52:49.484Z,65.95
2019-04-30T21:56:12.485Z,65.88
2019-04-30T21:59:35.460Z,66.94
2019-04-30T22:02:59.772Z,66.10
2019-04-30T22:06:25.715Z,66.29
2019-04-30T22:09:48.738Z,68.13
2019-04-30T22:13:11.794Z,67.98
2019-04-30T22:16:34.929Z,67.86
2019-04-30T22:19:59.637Z,68.84
2019-04-30T22:23:25.154Z,68.37
2019-04-30T22:26:48.167Z,67.88
2019-04-30T22:30:11.863Z,68.87
2019-04-30T22:33:35.008Z,69.15
2019-04-30T22:36:58.685Z,69.29
2019-04-30T22:40:29.025Z,69.76
2019-04-30T22:43:52.948Z,70.13
2019-04-30T22:47:16.073Z,70.40
2019-04-30T22:50:39.223Z,70.81
2019-04-30T22:54:02.311Z,70.67
2019-04-30T22:57:25.538Z,70.27
2019-04-30T23:00:50.811Z,70.67
2019-04-30T23:04:21.189Z,70.82
2019-04-30T23:07:44.332Z,71.01
2019-04-30T23:11:07.396Z,70.96
2019-04-30T23:14:30.567Z,71.49
2019-04-30T23:17:55.823Z,71.28
2019-04-30T23:21:18.968Z,71.85
2019-04-30T23:24:42.009Z,71.84
2019-04-30T23:28:05.087Z,72.04
2019-04-30T23:31:28.304Z,72.04
2019-04-30T23:34:51.375Z,71.80
2019-04-30T23:38:14.510Z,72.03
2019-04-30T23:41:37.567Z,71.85
2019-04-30T23:45:00.790Z,71.93
2019-04-30T23:48:25.737Z,72.09
2019-04-30T23:51:50.535Z,72.17
2019-04-30T23:55:13.863Z,72.92
2019-04-30T23:58:36.966Z,72.92
